createdAt,value
2023-04-03T00:00:36.049Z,99719.19
2023-04-03T00:03:05.238Z,99724.19
2023-04-03T00:05:35.739Z,99725.13
2023-04-03T00:08:05.799Z,99722.59
2023-04-03T00:10:34.931Z,99727.72
2023-04-03T00:13:03.817Z,99730.25
2023-04-03T00:15:32.792Z,99731.06
2023-04-03T00:18:01.886Z,99735.22
2023-04-03T00:20:30.992Z,99731.84
2023-04-03T00:23:01.480Z,99727.66
2023-04-03T00:25:30.469Z,99733.56
2023-04-03T00:27:59.210Z,99726.75
2023-04-03T00:30:28.423Z,99731.06
2023-04-03T00:32:57.620Z,99717.50
2023-04-03T00:35:27.153Z,99727.91
2023-04-03T00:37:57.078Z,99737.16
2023-04-03T00:40:29.038Z,99731.22
2023-04-03T00:43:00.744Z,99734.53
2023-04-03T00:45:34.881Z,99737.09
2023-04-03T00:48:08.057Z,99739.63
2023-04-03T00:50:40.038Z,99723.44
2023-04-03T00:53:13.832Z,99740.47
2023-04-03T00:55:45.284Z,99740.47
2023-04-03T00:58:16.745Z,99736.28
2023-04-03T01:00:51.028Z,99735.50
2023-04-03T01:03:19.783Z,99729.75
2023-04-03T01:05:48.607Z,99733.94
2023-04-03T01:08:17.620Z,99727.19
2023-04-03T01:10:47.750Z,99717.94
2023-04-03T01:13:27.201Z,99719.63
2023-04-03T01:15:56.719Z,99716.06
2023-04-03T01:18:27.538Z,99720.31
2023-04-03T01:21:26.826Z,99724.50
2023-04-03T01:24:27.687Z,99719.44
2023-04-03T01:26:58.273Z,99723.56
2023-04-03T01:29:27.224Z,99720.13
2023-04-03T01:31:59.442Z,99722.56
2023-04-03T01:34:30.179Z,99721.53
2023-04-03T01:36:59.435Z,99718.13
2023-04-03T01:39:28.319Z,99717.25
2023-04-03T01:41:57.184Z,99720.56
2023-04-03T01:44:32.106Z,99711.91
2023-04-03T01:47:02.529Z,99714.47
2023-04-03T01:49:32.652Z,99706.88
2023-04-03T01:52:01.623Z,99707.56
2023-04-03T01:54:30.520Z,99706.72
2023-04-03T01:56:59.300Z,99708.38
2023-04-03T01:59:29.252Z,99708.38
2023-04-03T02:01:58.555Z,99701.59
2023-04-03T02:04:28.693Z,99709.22
2023-04-03T02:06:59.052Z,99715.19
2023-04-03T02:09:27.892Z,99711.84
2023-04-03T02:11:57.153Z,99711.78
2023-04-03T02:14:28.225Z,99715.09
2023-04-03T02:16:57.124Z,99712.56
2023-04-03T02:19:25.953Z,99715.88
2023-04-03T02:21:56.232Z,99715.00
2023-04-03T02:24:25.203Z,99730.16
2023-04-03T02:26:53.968Z,99723.38
2023-04-03T02:29:24.122Z,99726.81
2023-04-03T02:31:54.171Z,99720.03
2023-04-03T02:34:24.719Z,99732.06
2023-04-03T02:36:56.044Z,99723.66
2023-04-03T02:39:25.100Z,99723.59
2023-04-03T02:41:54.278Z,99731.22
2023-04-03T02:44:26.406Z,99720.31
2023-04-03T02:46:55.572Z,99727.13
2023-04-03T02:49:25.596Z,99715.25
2023-04-03T02:51:55.893Z,99721.13
2023-04-03T02:54:28.839Z,99720.25
2023-04-03T02:57:00.486Z,99723.47
2023-04-03T02:59:29.379Z,99732.78
2023-04-03T03:01:58.349Z,99728.50
2023-04-03T03:04:27.192Z,99736.09
2023-04-03T03:06:57.303Z,99735.25
2023-04-03T03:09:26.864Z,99741.91
2023-04-03T03:11:56.095Z,99735.13
2023-04-03T03:14:25.024Z,99741.75
2023-04-03T03:16:53.879Z,99738.34
2023-04-03T03:19:22.623Z,99740.06
2023-04-03T03:21:52.493Z,99738.31
2023-04-03T03:24:22.653Z,99744.25
2023-04-03T03:26:51.455Z,99736.66
2023-04-03T03:29:20.203Z,99748.47
2023-04-03T03:31:49.523Z,99752.03
2023-04-03T03:34:18.335Z,99746.22
2023-04-03T03:36:47.195Z,99755.53
2023-04-03T03:39:16.393Z,99752.13
2023-04-03T03:41:46.870Z,99751.28
2023-04-03T03:44:17.172Z,99758.84
2023-04-03T03:46:45.980Z,99754.53
2023-04-03T03:49:14.961Z,99747.75
2023-04-03T03:51:43.784Z,99754.41
2023-04-03T03:54:13.275Z,99750.03
2023-04-03T03:56:42.006Z,99763.50
2023-04-03T03:59:14.042Z,99762.75
2023-04-03T04:01:43.942Z,99767.88
2023-04-03T04:04:12.791Z,99767.03
2023-04-03T04:06:41.713Z,99774.75
2023-04-03T04:09:13.512Z,99767.19
2023-04-03T04:11:42.413Z,99768.97
2023-04-03T04:14:15.447Z,99770.00
2023-04-03T04:16:46.169Z,99772.53
2023-04-03T04:19:20.128Z,99774.28
2023-04-03T04:21:49.130Z,99770.97
2023-04-03T04:24:18.053Z,99781.13
2023-04-03T04:26:47.546Z,99774.47
2023-04-03T04:29:19.807Z,99770.19
2023-04-03T04:31:51.667Z,99771.84
2023-04-03T04:34:20.446Z,99777.88
2023-04-03T04:36:49.864Z,99776.22
2023-04-03T04:39:18.764Z,99781.38
2023-04-03T04:41:47.496Z,99790.69
2023-04-03T04:44:16.570Z,99788.19
2023-04-03T04:46:46.816Z,99790.59
2023-04-03T04:49:15.889Z,99789.84
2023-04-03T04:51:52.131Z,99790.72
2023-04-03T04:54:28.009Z,99790.75
2023-04-03T04:56:56.945Z,99790.88
2023-04-03T04:59:25.953Z,99793.44
2023-04-03T05:01:59.149Z,99790.03
2023-04-03T05:04:29.148Z,99791.81
2023-04-03T05:07:05.172Z,99798.59
2023-04-03T05:09:37.979Z,99801.19
2023-04-03T05:12:07.465Z,99798.66
2023-04-03T05:14:42.664Z,99805.50
2023-04-03T05:17:14.747Z,99810.53
2023-04-03T05:19:48.694Z,99813.19
2023-04-03T05:22:18.807Z,99809.88
2023-04-03T05:24:47.576Z,99811.63
2023-04-03T05:27:18.169Z,99824.41
2023-04-03T05:29:52.956Z,99832.97
2023-04-03T05:32:26.237Z,99830.38
2023-04-03T05:35:04.756Z,99829.56
2023-04-03T05:37:33.865Z,99844.78
2023-04-03T05:40:02.890Z,99844.78
2023-04-03T05:42:32.174Z,99849.03
2023-04-03T05:45:01.442Z,99851.56
2023-04-03T05:47:31.876Z,99851.69
2023-04-03T05:50:01.543Z,99866.22
2023-04-03T05:52:33.732Z,99857.88
2023-04-03T05:55:03.046Z,99857.06
2023-04-03T05:57:33.958Z,99864.78
2023-04-03T06:00:03.252Z,99868.88
2023-04-03T06:02:34.106Z,99869.66
2023-04-03T06:05:04.130Z,99863.81
2023-04-03T06:07:32.922Z,99863.06
2023-04-03T06:10:02.534Z,99870.75
2023-04-03T06:12:31.894Z,99869.84
2023-04-03T06:15:00.811Z,99863.06
2023-04-03T06:17:31.099Z,99859.59
2023-04-03T06:20:01.521Z,99858.84
2023-04-03T06:22:31.150Z,99856.13
2023-04-03T06:25:00.411Z,99870.66
2023-04-03T06:27:30.453Z,99860.59
2023-04-03T06:29:59.118Z,99862.38
2023-04-03T06:32:27.972Z,99862.50
2023-04-03T06:34:56.744Z,99860.78
2023-04-03T06:37:29.887Z,99863.22
2023-04-03T06:39:58.953Z,99869.22
2023-04-03T06:42:27.603Z,99870.19
2023-04-03T06:45:10.849Z,99867.66
2023-04-03T06:47:39.669Z,99861.72
2023-04-03T06:50:10.274Z,99865.94
2023-04-03T06:52:41.162Z,99871.97
2023-04-03T06:55:11.551Z,99868.72
2023-04-03T06:57:40.332Z,99880.59
2023-04-03T07:00:11.556Z,99875.50
2023-04-03T07:02:40.668Z,99882.34
2023-04-03T07:05:10.122Z,99871.56
2023-04-03T07:07:40.513Z,99873.59
2023-04-03T07:10:10.803Z,99876.81
2023-04-03T07:12:39.972Z,99880.66
2023-04-03T07:15:09.937Z,99885.78
2023-04-03T07:17:39.021Z,99887.53
2023-04-03T07:20:09.347Z,99887.81
2023-04-03T07:22:39.516Z,99881.91
2023-04-03T07:25:09.405Z,99882.13
2023-04-03T07:27:38.070Z,99888.41
2023-04-03T07:30:07.803Z,99890.97
2023-04-03T07:32:36.712Z,99892.88
2023-04-03T07:35:06.079Z,99886.06
2023-04-03T07:37:34.873Z,99894.56
2023-04-03T07:40:05.677Z,99894.56
2023-04-03T07:42:34.346Z,99880.97
2023-04-03T07:45:03.452Z,99890.34
2023-04-03T07:47:33.072Z,99888.66
2023-04-03T07:50:01.740Z,99897.69
2023-04-03T07:52:30.843Z,99902.59
2023-04-03T07:55:00.329Z,99889.75
2023-04-03T07:57:31.901Z,99902.41
2023-04-03T08:00:00.573Z,99898.19
2023-04-03T08:02:29.209Z,99910.69
2023-04-03T08:04:58.279Z,99923.38
2023-04-03T08:07:28.597Z,99912.47
2023-04-03T08:09:57.272Z,99917.53
2023-04-03T08:12:25.989Z,99911.84
2023-04-03T08:14:56.310Z,99898.28
2023-04-03T08:17:25.040Z,99891.31
2023-04-03T08:19:53.921Z,99899.63
2023-04-03T08:22:22.641Z,99901.94
2023-04-03T08:24:58.660Z,99913.59
2023-04-03T08:27:28.934Z,99908.47
2023-04-03T08:29:59.073Z,99905.31
2023-04-03T08:32:28.234Z,99911.63
2023-04-03T08:34:57.357Z,99913.53
2023-04-03T08:37:26.082Z,99903.75
2023-04-03T08:39:54.822Z,99909.13
2023-04-03T08:42:39.794Z,99906.50
2023-04-03T08:45:14.913Z,99914.66
2023-04-03T08:47:49.706Z,99916.78
2023-04-03T08:50:22.332Z,99917.91
2023-04-03T08:52:54.714Z,99914.66
2023-04-03T08:55:28.294Z,99902.22
2023-04-03T08:58:03.642Z,99915.88
2023-04-03T09:00:43.976Z,99914.34
2023-04-03T09:03:16.349Z,99910.91
2023-04-03T09:05:53.584Z,99910.03
2023-04-03T09:08:27.522Z,99909.16
2023-04-03T09:11:09.578Z,99917.66
2023-04-03T09:13:43.960Z,99912.66
2023-04-03T09:16:33.271Z,99930.41
2023-04-03T09:19:16.982Z,99917.03
2023-04-03T09:21:45.935Z,99928.88
2023-04-03T09:24:18.992Z,99915.13
2023-04-03T09:26:52.498Z,99916.13
2023-04-03T09:29:24.104Z,99932.16
2023-04-03T09:32:00.893Z,99922.75
2023-04-03T09:34:32.817Z,99923.69
2023-04-03T09:37:06.949Z,99932.94
2023-04-03T09:39:52.163Z,99937.44
2023-04-03T09:42:23.676Z,99942.72
2023-04-03T09:44:57.522Z,99945.19
2023-04-03T09:47:30.445Z,99938.25
2023-04-03T09:50:25.132Z,99934.81
2023-04-03T09:52:54.244Z,99943.34
2023-04-03T09:55:28.474Z,99935.88
2023-04-03T09:57:59.353Z,99933.34
2023-04-03T10:00:31.138Z,99947.09
2023-04-03T10:03:01.793Z,99938.50
2023-04-03T10:05:36.301Z,99948.84
2023-04-03T10:08:24.675Z,99948.72
2023-04-03T10:11:13.826Z,99946.75
2023-04-03T10:13:55.078Z,99944.31
2023-04-03T10:16:29.289Z,99948.78
2023-04-03T10:19:27.944Z,99948.94
2023-04-03T10:22:00.350Z,99952.31
2023-04-03T10:24:38.383Z,99948.00
2023-04-03T10:27:12.404Z,99965.72
2023-04-03T10:29:46.301Z,99953.78
2023-04-03T10:32:44.040Z,99965.41
2023-04-03T10:35:22.641Z,99972.22
2023-04-03T10:38:03.644Z,99953.75
2023-04-03T10:40:37.785Z,99964.75
2023-04-03T10:43:18.600Z,99967.16
2023-04-03T10:45:58.585Z,99967.34
2023-04-03T10:48:47.652Z,99959.06
2023-04-03T10:51:28.813Z,99960.88
2023-04-03T10:54:03.367Z,99952.19
2023-04-03T10:56:38.491Z,99951.25
2023-04-03T10:59:21.343Z,99948.94
2023-04-03T11:01:54.220Z,99947.34
2023-04-03T11:04:26.793Z,99948.19
2023-04-03T11:07:03.074Z,99953.09
2023-04-03T11:09:38.396Z,99960.63
2023-04-03T11:12:13.627Z,99948.78
2023-04-03T11:14:43.215Z,99969.25
2023-04-03T11:17:22.755Z,99956.31
2023-04-03T11:19:59.700Z,99963.72
2023-04-03T11:22:33.480Z,99957.44
2023-04-03T11:25:07.575Z,99971.59
2023-04-03T11:27:45.054Z,99961.25
2023-04-03T11:30:22.534Z,99967.25
2023-04-03T11:33:18.703Z,99957.50
2023-04-03T11:35:51.688Z,99958.25
2023-04-03T11:38:27.432Z,99959.69
2023-04-03T11:40:57.956Z,99965.88
2023-04-03T11:43:30.485Z,99956.94
2023-04-03T11:46:02.157Z,99948.78
2023-04-03T11:48:50.356Z,99957.25
2023-04-03T11:51:40.816Z,99954.75
2023-04-03T11:54:35.332Z,99976.97
2023-04-03T11:57:33.463Z,99975.22
2023-04-03T12:00:19.571Z,99978.00
2023-04-03T12:02:54.314Z,99971.53
2023-04-03T12:05:29.077Z,99970.72
2023-04-03T12:08:20.044Z,99976.72
2023-04-03T12:11:22.555Z,99963.47
2023-04-03T12:14:07.409Z,99964.19
2023-04-03T12:16:48.611Z,99971.63
2023-04-03T12:19:42.803Z,99951.81
2023-04-03T12:22:20.558Z,99961.22
2023-04-03T12:24:51.843Z,99972.22
2023-04-03T12:27:31.463Z,99956.22
2023-04-03T12:30:14.932Z,99952.78
2023-04-03T12:33:12.014Z,99948.59
2023-04-03T12:35:52.455Z,99953.66
2023-04-03T12:38:44.178Z,99964.78
2023-04-03T12:41:33.433Z,99962.34
2023-04-03T12:44:27.327Z,99957.47
2023-04-03T12:46:56.722Z,99964.13
2023-04-03T12:49:38.503Z,99958.84
2023-04-03T12:52:19.142Z,99956.34
2023-04-03T12:54:49.244Z,99942.19
2023-04-03T12:57:21.675Z,99928.69
2023-04-03T12:59:50.750Z,99939.59
2023-04-03T13:02:26.533Z,99948.75
2023-04-03T13:05:00.603Z,99931.78
2023-04-03T13:07:34.731Z,99939.34
2023-04-03T13:10:16.709Z,99940.19
2023-04-03T13:12:53.480Z,99916.44
2023-04-03T13:15:26.208Z,99909.75
2023-04-03T13:17:56.101Z,99909.91
2023-04-03T13:20:30.512Z,99919.09
2023-04-03T13:23:02.654Z,99904.63
2023-04-03T13:25:35.053Z,99902.16
2023-04-03T13:28:13.893Z,99904.84
2023-04-03T13:30:44.165Z,99901.56
2023-04-03T13:33:24.076Z,99900.56
2023-04-03T13:36:00.806Z,99889.41
2023-04-03T13:38:34.148Z,99893.00
2023-04-03T13:41:06.717Z,99876.00
2023-04-03T13:43:38.434Z,99878.47
2023-04-03T13:46:25.012Z,99877.59
2023-04-03T13:48:56.307Z,99884.22
2023-04-03T13:51:28.893Z,99874.13
2023-04-03T13:53:59.945Z,99881.66
2023-04-03T13:56:34.655Z,99873.94
2023-04-03T13:59:08.318Z,99887.53
2023-04-03T14:01:47.008Z,99879.19
2023-04-03T14:04:20.679Z,99884.28
2023-04-03T14:06:52.850Z,99870.72
2023-04-03T14:09:22.860Z,99870.63
2023-04-03T14:11:54.825Z,99875.78
2023-04-03T14:14:25.887Z,99873.31
2023-04-03T14:16:59.451Z,99874.19
2023-04-03T14:19:30.941Z,99866.44
2023-04-03T14:22:02.132Z,99883.38
2023-04-03T14:24:30.873Z,99861.16
2023-04-03T14:26:59.883Z,99878.97
2023-04-03T14:29:28.781Z,99875.50
2023-04-03T14:32:11.473Z,99878.09
2023-04-03T14:34:44.210Z,99868.72
2023-04-03T14:37:17.355Z,99867.03
2023-04-03T14:39:48.999Z,99873.03
2023-04-03T14:42:20.309Z,99870.47
2023-04-03T14:44:49.184Z,99885.69
2023-04-03T14:47:30.575Z,99877.16
2023-04-03T14:50:01.285Z,99882.09
2023-04-03T14:52:34.233Z,99889.81
2023-04-03T14:55:04.185Z,99895.72
2023-04-03T14:57:33.941Z,99892.22
2023-04-03T15:00:04.925Z,99892.91
2023-04-03T15:02:36.099Z,99889.47
2023-04-03T15:05:08.139Z,99887.00
2023-04-03T15:07:40.840Z,99888.59
2023-04-03T15:10:19.012Z,99888.41
2023-04-03T15:12:48.909Z,99885.06
2023-04-03T15:15:18.897Z,99899.53
2023-04-03T15:17:48.906Z,99894.97
2023-04-03T15:20:19.778Z,99912.75
2023-04-03T15:22:50.038Z,99909.31
2023-04-03T15:25:19.350Z,99912.44
2023-04-03T15:27:48.156Z,99898.78
2023-04-03T15:30:19.578Z,99902.00
2023-04-03T15:32:49.895Z,99909.31
2023-04-03T15:35:19.046Z,99912.34
2023-04-03T15:37:49.131Z,99910.44
2023-04-03T15:40:19.549Z,99901.88
2023-04-03T15:42:48.352Z,99920.59
2023-04-03T15:45:17.142Z,99922.22
2023-04-03T15:47:45.948Z,99923.66
2023-04-03T15:50:14.790Z,99926.84
2023-04-03T15:52:43.588Z,99928.28
2023-04-03T15:55:12.330Z,99927.38
2023-04-03T15:57:42.571Z,99924.66
2023-04-03T16:00:12.759Z,99931.38
2023-04-03T16:02:42.840Z,99949.06
2023-04-03T16:05:11.971Z,99928.03
2023-04-03T16:07:41.611Z,99935.66
2023-04-03T16:10:12.395Z,99944.88
2023-04-03T16:12:42.758Z,99940.47
2023-04-03T16:15:12.850Z,99936.09
2023-04-03T16:17:43.661Z,99941.75
2023-04-03T16:20:14.283Z,99945.09
2023-04-03T16:22:43.840Z,99940.69
2023-04-03T16:25:13.168Z,99953.13
2023-04-03T16:27:43.306Z,99953.78
2023-04-03T16:30:13.352Z,99924.59
2023-04-03T16:32:42.770Z,99957.00
2023-04-03T16:35:12.793Z,99951.00
2023-04-03T16:37:42.091Z,99952.75
2023-04-03T16:40:13.218Z,99954.47
2023-04-03T16:42:43.781Z,99958.63
2023-04-03T16:45:12.984Z,99959.22
2023-04-03T16:47:42.485Z,99959.06
2023-04-03T16:50:12.236Z,99958.91
2023-04-03T16:52:40.995Z,99964.00
2023-04-03T16:55:11.101Z,99977.38
2023-04-03T16:57:39.726Z,99979.72
2023-04-03T17:00:11.622Z,99979.59
2023-04-03T17:02:41.025Z,99982.84
2023-04-03T17:05:10.329Z,99987.84
2023-04-03T17:07:39.639Z,99987.84
2023-04-03T17:10:09.688Z,99996.16
2023-04-03T17:12:38.478Z,99990.13
2023-04-03T17:15:08.340Z,99991.66
2023-04-03T17:17:39.068Z,99995.94
2023-04-03T17:20:09.476Z,100000.94
2023-04-03T17:22:38.394Z,99998.28
2023-04-03T17:25:08.339Z,99988.78
2023-04-03T17:27:37.248Z,99998.16
2023-04-03T17:30:06.785Z,99998.97
2023-04-03T17:32:35.617Z,99993.91
2023-04-03T17:35:06.240Z,99992.13
2023-04-03T17:37:35.084Z,99996.94
2023-04-03T17:40:03.936Z,99999.38
2023-04-03T17:42:32.880Z,100001.59
2023-04-03T17:45:01.557Z,99998.81
2023-04-03T17:47:30.293Z,100003.75
2023-04-03T17:49:59.048Z,99999.56
2023-04-03T17:52:29.390Z,99985.00
2023-04-03T17:54:58.329Z,99998.53
2023-04-03T17:57:27.021Z,100017.91
2023-04-03T17:59:55.805Z,100011.13
2023-04-03T18:02:24.880Z,100015.19
2023-04-03T18:04:54.364Z,100026.22
2023-04-03T18:07:23.262Z,100028.84
2023-04-03T18:09:54.167Z,100033.97
2023-04-03T18:12:23.624Z,100037.94
2023-04-03T18:14:52.393Z,100036.94
2023-04-03T18:17:22.679Z,100041.03
2023-04-03T18:19:52.968Z,100041.72
2023-04-03T18:22:24.578Z,100052.59
2023-04-03T18:24:55.475Z,100056.75
2023-04-03T18:27:28.200Z,100060.19
2023-04-03T18:30:02.002Z,100056.75
2023-04-03T18:32:30.764Z,100054.22
2023-04-03T18:35:01.117Z,100064.25
2023-04-03T18:37:30.300Z,100065.81
2023-04-03T18:40:00.409Z,100073.34
2023-04-03T18:42:29.858Z,100074.88
2023-04-03T18:45:02.351Z,100079.19
2023-04-03T18:47:31.587Z,100097.78
2023-04-03T18:50:00.661Z,100091.03
2023-04-03T18:52:29.472Z,100085.59
2023-04-03T18:54:59.864Z,100100.66
2023-04-03T18:57:28.680Z,100103.81
2023-04-03T18:59:57.516Z,100113.03
2023-04-03T19:02:27.136Z,100116.44
2023-04-03T19:04:56.207Z,100116.44
2023-04-03T19:07:25.053Z,100116.31
2023-04-03T19:09:54.997Z,100118.78
2023-04-03T19:12:26.391Z,100114.53
2023-04-03T19:14:55.182Z,100110.19
2023-04-03T19:17:23.904Z,100108.34
2023-04-03T19:19:52.701Z,100111.72
2023-04-03T19:22:21.496Z,100120.00
2023-04-03T19:24:50.308Z,100115.78
2023-04-03T19:27:18.996Z,100116.53
2023-04-03T19:29:50.719Z,100112.31
2023-04-03T19:32:19.733Z,100111.41
2023-04-03T19:34:48.522Z,100117.22
2023-04-03T19:37:17.535Z,100135.66
2023-04-03T19:39:46.713Z,100136.53
2023-04-03T19:42:15.582Z,100143.13
2023-04-03T19:44:45.105Z,100151.41
2023-04-03T19:47:16.612Z,100146.25
2023-04-03T19:49:45.413Z,100150.31
2023-04-03T19:52:14.117Z,100155.44
2023-04-03T19:54:42.843Z,100152.84
2023-04-03T19:57:11.802Z,100150.22
2023-04-03T19:59:40.583Z,100159.47
2023-04-03T20:02:09.375Z,100156.81
2023-04-03T20:04:39.782Z,100157.66
2023-04-03T20:07:08.541Z,100164.44
2023-04-03T20:09:37.429Z,100165.38
2023-04-03T20:12:09.756Z,100165.38
2023-04-03T20:14:39.893Z,100167.81
2023-04-03T20:17:08.791Z,100166.00
2023-04-03T20:19:37.912Z,100164.19
2023-04-03T20:22:08.353Z,100164.19
2023-04-03T20:24:37.292Z,100165.91
2023-04-03T20:27:06.016Z,100159.22
2023-04-03T20:29:37.437Z,100159.47
2023-04-03T20:32:07.713Z,100156.22
2023-04-03T20:34:36.513Z,100140.97
2023-04-03T20:37:06.292Z,100143.75
2023-04-03T20:39:36.898Z,100139.69
2023-04-03T20:42:05.823Z,100129.47
2023-04-03T20:44:34.607Z,100133.59
2023-04-03T20:47:03.678Z,100125.75
2023-04-03T20:49:32.566Z,100118.06
2023-04-03T20:52:01.824Z,100106.19
2023-04-03T20:54:30.562Z,100098.47
2023-04-03T20:57:00.801Z,100100.09
2023-04-03T20:59:32.005Z,100094.94
2023-04-03T21:02:01.304Z,100083.94
2023-04-03T21:04:34.391Z,100092.22
2023-04-03T21:07:24.911Z,100091.41
2023-04-03T21:10:14.772Z,100085.44
2023-04-03T21:13:06.658Z,100074.47
2023-04-03T21:15:49.331Z,100078.47
2023-04-03T21:18:40.631Z,100068.13
2023-04-03T21:21:19.499Z,100071.38
2023-04-03T21:23:49.884Z,100072.13
2023-04-03T21:26:19.683Z,100067.72
2023-04-03T21:28:49.355Z,100048.31
2023-04-03T21:31:17.812Z,100039.97
2023-04-03T21:33:47.976Z,100034.78
2023-04-03T21:36:16.709Z,100032.22
2023-04-03T21:38:46.170Z,100033.16
2023-04-03T21:41:14.994Z,100022.97
2023-04-03T21:43:43.674Z,100022.13
2023-04-03T21:46:12.928Z,100018.59
2023-04-03T21:48:41.829Z,100012.56
2023-04-03T21:51:11.958Z,100012.56
2023-04-03T21:53:41.816Z,100010.88
2023-04-03T21:56:10.538Z,100005.00
2023-04-03T21:58:39.372Z,99997.44
2023-04-03T22:01:12.188Z,99999.06
2023-04-03T22:03:41.833Z,99992.28
2023-04-03T22:06:12.958Z,99957.88
2023-04-03T22:08:42.555Z,99984.41
2023-04-03T22:11:13.018Z,99986.81
2023-04-03T22:13:42.247Z,99985.88
2023-04-03T22:16:12.268Z,99986.63
2023-04-03T22:18:41.126Z,99983.19
2023-04-03T22:21:11.855Z,99948.13
2023-04-03T22:23:40.596Z,99973.13
2023-04-03T22:26:10.563Z,99973.13
2023-04-03T22:28:41.427Z,99974.81
2023-04-03T22:31:10.992Z,99974.81
2023-04-03T22:33:40.211Z,99969.69
2023-04-03T22:36:10.921Z,99971.28
2023-04-03T22:38:43.662Z,99964.53
2023-04-03T22:41:13.066Z,99936.16
2023-04-03T22:43:43.007Z,99965.44
2023-04-03T22:46:11.957Z,99967.97
2023-04-03T22:48:43.823Z,99966.84
2023-04-03T22:51:12.682Z,99968.72
2023-04-03T22:53:42.824Z,99966.16
2023-04-03T22:56:12.556Z,99961.13
2023-04-03T22:58:41.059Z,99950.91
2023-04-03T23:01:11.902Z,99954.91
2023-04-03T23:03:42.904Z,99954.03
2023-04-03T23:06:13.762Z,99951.47
2023-04-03T23:08:45.260Z,99951.66
2023-04-03T23:11:14.140Z,99954.16
2023-04-03T23:13:44.257Z,99945.88
2023-04-03T23:16:13.284Z,99949.31
2023-04-03T23:18:43.831Z,99948.44
2023-04-03T23:21:12.659Z,99951.63
2023-04-03T23:23:41.401Z,99957.47
2023-04-03T23:26:12.482Z,99953.31
2023-04-03T23:28:42.115Z,99954.22
2023-04-03T23:31:11.464Z,99957.56
2023-04-03T23:33:43.959Z,99952.41
2023-04-03T23:36:16.341Z,99947.25
2023-04-03T23:38:45.273Z,99947.19
2023-04-03T23:41:15.412Z,99945.47
2023-04-03T23:43:44.083Z,99945.56
2023-04-03T23:46:12.822Z,99946.44
2023-04-03T23:48:41.647Z,99952.25
2023-04-03T23:51:10.334Z,99959.78
2023-04-03T23:53:39.305Z,99960.69
2023-04-03T23:56:12.692Z,99955.41
2023-04-03T23:58:43.183Z,99962.03
